sensor_id;sensor_type;location;lat;lon;timestamp;pressure;altitude;pressure_sealevel;temperature;humidity
56668;BME280;42542;48.360;10.958;2024-01-15T00:01:43;94952.63;;;-2.50;96.24
56668;BME280;42542;48.360;10.958;2024-01-15T00:04:49;94944.47;;;-2.45;95.88
56668;BME280;42542;48.360;10.958;2024-01-15T00:07:51;94937.78;;;-2.49;95.74
56668;BME280;42542;48.360;10.958;2024-01-15T00:10:53;94934.94;;;-2.46;95.54
56668;BME280;42542;48.360;10.958;2024-01-15T00:13:55;94933.88;;;-2.44;95.12
56668;BME280;42542;48.360;10.958;2024-01-15T00:16:56;94937.31;;;-2.43;94.90
56668;BME280;42542;48.360;10.958;2024-01-15T00:19:59;94939.25;;;-2.45;94.68
56668;BME280;42542;48.360;10.958;2024-01-15T00:23:01;94942.78;;;-2.46;94.47
56668;BME280;42542;48.360;10.958;2024-01-15T00:26:03;94938.41;;;-2.46;93.88
56668;BME280;42542;48.360;10.958;2024-01-15T00:29:09;94944.69;;;-2.48;94.01
56668;BME280;42542;48.360;10.958;2024-01-15T00:32:11;94941.97;;;-2.47;93.55
56668;BME280;42542;48.360;10.958;2024-01-15T00:35:13;94949.81;;;-2.47;93.16
56668;BME280;42542;48.360;10.958;2024-01-15T00:38:15;94947.19;;;-2.47;93.07
56668;BME280;42542;48.360;10.958;2024-01-15T00:41:17;94951.47;;;-2.46;92.83
56668;BME280;42542;48.360;10.958;2024-01-15T00:44:20;94955.03;;;-2.47;92.60
56668;BME280;42542;48.360;10.958;2024-01-15T00:47:22;94942.06;;;-2.48;93.09
56668;BME280;42542;48.360;10.958;2024-01-15T00:50:24;94934.22;;;-2.48;92.86
56668;BME280;42542;48.360;10.958;2024-01-15T00:53:26;94938.03;;;-2.52;92.38
56668;BME280;42542;48.360;10.958;2024-01-15T00:56:28;94937.31;;;-2.54;92.39
56668;BME280;42542;48.360;10.958;2024-01-15T00:59:30;94948.59;;;-2.54;92.29
56668;BME280;42542;48.360;10.958;2024-01-15T01:02:32;94951.22;;;-2.54;92.24
56668;BME280;42542;48.360;10.958;2024-01-15T01:05:34;94935.16;;;-2.60;92.22
56668;BME280;42542;48.360;10.958;2024-01-15T01:08:37;94935.97;;;-2.60;92.08
56668;BME280;42542;48.360;10.958;2024-01-15T01:11:38;94943.22;;;-2.63;91.66
56668;BME280;42542;48.360;10.958;2024-01-15T01:14:41;94934.63;;;-2.65;91.71
56668;BME280;42542;48.360;10.958;2024-01-15T01:17:43;94940.00;;;-2.67;91.73
56668;BME280;42542;48.360;10.958;2024-01-15T01:20:45;94943.41;;;-2.66;91.71
56668;BME280;42542;48.360;10.958;2024-01-15T01:23:47;94951.28;;;-2.66;91.30
56668;BME280;42542;48.360;10.958;2024-01-15T01:26:49;94953.06;;;-2.67;91.28
56668;BME280;42542;48.360;10.958;2024-01-15T01:29:51;94955.06;;;-2.70;91.43
56668;BME280;42542;48.360;10.958;2024-01-15T01:32:53;94965.53;;;-2.70;91.05
56668;BME280;42542;48.360;10.958;2024-01-15T01:35:55;94956.84;;;-2.71;90.98
56668;BME280;42542;48.360;10.958;2024-01-15T01:38:57;94953.41;;;-2.71;91.06
56668;BME280;42542;48.360;10.958;2024-01-15T01:41:58;94959.47;;;-2.71;90.99
56668;BME280;42542;48.360;10.958;2024-01-15T01:45:00;94958.63;;;-2.71;90.70
56668;BME280;42542;48.360;10.958;2024-01-15T01:48:03;94959.47;;;-2.71;91.10
56668;BME280;42542;48.360;10.958;2024-01-15T01:51:07;94954.22;;;-2.71;90.54
56668;BME280;42542;48.360;10.958;2024-01-15T01:54:10;94946.63;;;-2.74;90.91
56668;BME280;42542;48.360;10.958;2024-01-15T01:57:15;94938.06;;;-2.76;90.51
56668;BME280;42542;48.360;10.958;2024-01-15T02:00:18;94937.59;;;-2.70;90.72
56668;BME280;42542;48.360;10.958;2024-01-15T02:03:21;94928.81;;;-2.69;90.35
56668;BME280;42542;48.360;10.958;2024-01-15T02:06:23;94939.28;;;-2.69;90.38
56668;BME280;42542;48.360;10.958;2024-01-15T02:09:26;94930.59;;;-2.69;90.57
56668;BME280;42542;48.360;10.958;2024-01-15T02:12:28;94940.09;;;-2.68;90.16
56668;BME280;42542;48.360;10.958;2024-01-15T02:15:30;94922.25;;;-2.74;90.26
56668;BME280;42542;48.360;10.958;2024-01-15T02:18:46;94933.41;;;-2.72;89.80
56668;BME280;42542;48.360;10.958;2024-01-15T02:21:49;94927.34;;;-2.73;89.95
56668;BME280;42542;48.360;10.958;2024-01-15T02:24:52;94932.47;;;-2.71;89.72
56668;BME280;42542;48.360;10.958;2024-01-15T02:27:54;94933.31;;;-2.71;89.86
56668;BME280;42542;48.360;10.958;2024-01-15T02:30:56;94922.13;;;-2.73;89.53
56668;BME280;42542;48.360;10.958;2024-01-15T02:33:59;94925.25;;;-2.68;89.30
56668;BME280;42542;48.360;10.958;2024-01-15T02:37:01;94931.44;;;-2.69;89.61
56668;BME280;42542;48.360;10.958;2024-01-15T02:40:03;94928.91;;;-2.70;89.43
56668;BME280;42542;48.360;10.958;2024-01-15T02:43:06;94931.06;;;-2.64;89.50
56668;BME280;42542;48.360;10.958;2024-01-15T02:46:08;94940.81;;;-2.66;89.19
56668;BME280;42542;48.360;10.958;2024-01-15T02:49:10;94940.47;;;-2.62;89.81
56668;BME280;42542;48.360;10.958;2024-01-15T02:52:12;94938.81;;;-2.63;89.53
56668;BME280;42542;48.360;10.958;2024-01-15T02:55:13;94940.47;;;-2.62;89.16
56668;BME280;42542;48.360;10.958;2024-01-15T02:58:15;94946.44;;;-2.60;89.65
56668;BME280;42542;48.360;10.958;2024-01-15T03:01:19;94950.59;;;-2.57;89.37
56668;BME280;42542;48.360;10.958;2024-01-15T03:04:21;94954.16;;;-2.58;89.07
56668;BME280;42542;48.360;10.958;2024-01-15T03:07:23;94938.34;;;-2.57;88.83
56668;BME280;42542;48.360;10.958;2024-01-15T03:10:27;94941.91;;;-2.58;88.93
56668;BME280;42542;48.360;10.958;2024-01-15T03:13:28;94941.81;;;-2.56;88.56
56668;BME280;42542;48.360;10.958;2024-01-15T03:16:30;94937.63;;;-2.59;88.39
56668;BME280;42542;48.360;10.958;2024-01-15T03:19:34;94928.25;;;-2.61;88.45
56668;BME280;42542;48.360;10.958;2024-01-15T03:22:37;94929.91;;;-2.60;88.08
56668;BME280;42542;48.360;10.958;2024-01-15T03:25:38;94942.63;;;-2.56;87.82
56668;BME280;42542;48.360;10.958;2024-01-15T03:28:41;94937.19;;;-2.53;88.28
56668;BME280;42542;48.360;10.958;2024-01-15T03:31:42;94928.72;;;-2.56;87.79
56668;BME280;42542;48.360;10.958;2024-01-15T03:34:45;94927.88;;;-2.57;87.74
56668;BME280;42542;48.360;10.958;2024-01-15T03:37:49;94926.09;;;-2.56;87.23
56668;BME280;42542;48.360;10.958;2024-01-15T03:40:51;94919.22;;;-2.57;87.43
56668;BME280;42542;48.360;10.958;2024-01-15T03:43:53;94921.13;;;-2.59;87.29
56668;BME280;42542;48.360;10.958;2024-01-15T03:46:55;94925.28;;;-2.57;87.14
56668;BME280;42542;48.360;10.958;2024-01-15T03:49:57;94922.66;;;-2.57;87.22
56668;BME280;42542;48.360;10.958;2024-01-15T03:53:00;94934.69;;;-2.54;87.50
56668;BME280;42542;48.360;10.958;2024-01-15T03:56:02;94930.19;;;-2.52;87.14
56668;BME280;42542;48.360;10.958;2024-01-15T03:59:04;94936.34;;;-2.53;86.78
56668;BME280;42542;48.360;10.958;2024-01-15T04:02:06;94929.34;;;-2.53;87.24
56668;BME280;42542;48.360;10.958;2024-01-15T04:05:08;94936.09;;;-2.50;86.64
56668;BME280;42542;48.360;10.958;2024-01-15T04:08:09;94934.44;;;-2.51;86.62
56668;BME280;42542;48.360;10.958;2024-01-15T04:11:12;94927.66;;;-2.54;86.86
56668;BME280;42542;48.360;10.958;2024-01-15T04:14:13;94920.41;;;-2.50;86.25
56668;BME280;42542;48.360;10.958;2024-01-15T04:17:15;94924.94;;;-2.52;86.47
56668;BME280;42542;48.360;10.958;2024-01-15T04:20:18;94923.97;;;-2.51;86.30
56668;BME280;42542;48.360;10.958;2024-01-15T04:23:24;94909.38;;;-2.54;86.35
56668;BME280;42542;48.360;10.958;2024-01-15T04:26:26;94911.88;;;-2.52;86.03
56668;BME280;42542;48.360;10.958;2024-01-15T04:29:29;94904.13;;;-2.54;86.42
56668;BME280;42542;48.360;10.958;2024-01-15T04:32:31;94907.59;;;-2.53;86.16
56668;BME280;42542;48.360;10.958;2024-01-15T04:35:33;94909.25;;;-2.52;86.10
56668;BME280;42542;48.360;10.958;2024-01-15T04:38:35;94916.47;;;-2.56;86.31
56668;BME280;42542;48.360;10.958;2024-01-15T04:41:37;94921.50;;;-2.53;85.90
56668;BME280;42542;48.360;10.958;2024-01-15T04:44:39;94918.75;;;-2.51;85.42
56668;BME280;42542;48.360;10.958;2024-01-15T04:47:42;94921.13;;;-2.48;86.11
56668;BME280;42542;48.360;10.958;2024-01-15T04:50:43;94928.03;;;-2.47;85.84
56668;BME280;42542;48.360;10.958;2024-01-15T04:53:45;94919.13;;;-2.45;86.09
56668;BME280;42542;48.360;10.958;2024-01-15T04:56:47;94915.44;;;-2.42;85.73
56668;BME280;42542;48.360;10.958;2024-01-15T04:59:49;94918.91;;;-2.42;85.67
56668;BME280;42542;48.360;10.958;2024-01-15T05:02:51;94911.78;;;-2.40;85.16
56668;BME280;42542;48.360;10.958;2024-01-15T05:05:53;94913.31;;;-2.37;85.08
56668;BME280;42542;48.360;10.958;2024-01-15T05:08:55;94906.19;;;-2.35;84.94
56668;BME280;42542;48.360;10.958;2024-01-15T05:11:56;94902.41;;;-2.31;84.58
56668;BME280;42542;48.360;10.958;2024-01-15T05:14:59;94901.31;;;-2.28;84.72
56668;BME280;42542;48.360;10.958;2024-01-15T05:18:05;94909.88;;;-2.26;84.51
56668;BME280;42542;48.360;10.958;2024-01-15T05:21:09;94894.06;;;-2.25;84.45
56668;BME280;42542;48.360;10.958;2024-01-15T05:24:20;94905.38;;;-2.24;84.13
56668;BME280;42542;48.360;10.958;2024-01-15T05:27:21;94906.06;;;-2.22;83.81
56668;BME280;42542;48.360;10.958;2024-01-15T05:30:23;94905.00;;;-2.20;84.12
56668;BME280;42542;48.360;10.958;2024-01-15T05:33:25;94911.09;;;-2.19;83.73
56668;BME280;42542;48.360;10.958;2024-01-15T05:36:27;94918.94;;;-2.19;83.97
56668;BME280;42542;48.360;10.958;2024-01-15T05:39:29;94920.25;;;-2.14;83.96
56668;BME280;42542;48.360;10.958;2024-01-15T05:42:31;94928.34;;;-2.17;83.74
56668;BME280;42542;48.360;10.958;2024-01-15T05:45:35;94926.44;;;-2.15;84.04
56668;BME280;42542;48.360;10.958;2024-01-15T05:48:37;94918.56;;;-2.15;84.29
56668;BME280;42542;48.360;10.958;2024-01-15T05:51:40;94916.78;;;-2.14;84.49
56668;BME280;42542;48.360;10.958;2024-01-15T05:54:42;94909.56;;;-2.11;84.41
56668;BME280;42542;48.360;10.958;2024-01-15T05:57:45;94910.38;;;-2.10;83.94
56668;BME280;42542;48.360;10.958;2024-01-15T06:00:47;94912.06;;;-2.09;83.84
56668;BME280;42542;48.360;10.958;2024-01-15T06:03:50;94911.91;;;-2.08;84.08
56668;BME280;42542;48.360;10.958;2024-01-15T06:06:51;94911.91;;;-2.08;83.82
56668;BME280;42542;48.360;10.958;2024-01-15T06:09:54;94905.63;;;-2.05;83.88
56668;BME280;42542;48.360;10.958;2024-01-15T06:12:56;94903.84;;;-2.05;83.63
56668;BME280;42542;48.360;10.958;2024-01-15T06:15:57;94906.34;;;-2.03;84.07
56668;BME280;42542;48.360;10.958;2024-01-15T06:18:59;94907.75;;;-1.99;83.72
56668;BME280;42542;48.360;10.958;2024-01-15T06:22:02;94896.34;;;-1.98;83.83
56668;BME280;42542;48.360;10.958;2024-01-15T06:25:07;94903.81;;;-1.93;83.74
56668;BME280;42542;48.360;10.958;2024-01-15T06:28:09;94895.75;;;-1.90;83.75
56668;BME280;42542;48.360;10.958;2024-01-15T06:31:12;94906.00;;;-1.87;83.29
56668;BME280;42542;48.360;10.958;2024-01-15T06:34:15;94906.09;;;-1.89;82.96
56668;BME280;42542;48.360;10.958;2024-01-15T06:37:17;94914.81;;;-1.88;83.38
56668;BME280;42542;48.360;10.958;2024-01-15T06:40:21;94913.13;;;-1.89;83.11
56668;BME280;42542;48.360;10.958;2024-01-15T06:43:23;94906.09;;;-1.89;83.18
56668;BME280;42542;48.360;10.958;2024-01-15T06:46:25;94906.94;;;-1.88;83.26
56668;BME280;42542;48.360;10.958;2024-01-15T06:49:29;94909.56;;;-1.88;82.79
56668;BME280;42542;48.360;10.958;2024-01-15T06:52:31;94905.84;;;-1.86;83.16
56668;BME280;42542;48.360;10.958;2024-01-15T06:55:33;94908.25;;;-1.83;82.71
56668;BME280;42542;48.360;10.958;2024-01-15T06:58:35;94898.50;;;-1.81;83.17
56668;BME280;42542;48.360;10.958;2024-01-15T07:01:36;94884.41;;;-1.80;83.41
56668;BME280;42542;48.360;10.958;2024-01-15T07:09:25;94878.84;;;-1.75;84.30
56668;BME280;42542;48.360;10.958;2024-01-15T07:12:27;94868.25;;;-1.74;84.12
56668;BME280;42542;48.360;10.958;2024-01-15T07:15:28;94867.75;;;-1.68;84.90
56668;BME280;42542;48.360;10.958;2024-01-15T07:18:30;94876.19;;;-1.64;84.25
56668;BME280;42542;48.360;10.958;2024-01-15T07:21:32;94866.44;;;-1.62;84.28
56668;BME280;42542;48.360;10.958;2024-01-15T07:24:34;94863.69;;;-1.61;84.09
56668;BME280;42542;48.360;10.958;2024-01-15T07:27:36;94876.19;;;-1.53;84.05
56668;BME280;42542;48.360;10.958;2024-01-15T07:30:39;94876.66;;;-1.48;84.65
56668;BME280;42542;48.360;10.958;2024-01-15T07:33:41;94885.13;;;-1.44;84.04
56668;BME280;42542;48.360;10.958;2024-01-15T07:36:46;94879.63;;;-1.41;83.37
56668;BME280;42542;48.360;10.958;2024-01-15T07:39:49;94886.97;;;-1.35;83.28
56668;BME280;42542;48.360;10.958;2024-01-15T07:42:51;94884.13;;;-1.32;83.21
56668;BME280;42542;48.360;10.958;2024-01-15T07:45:54;94883.75;;;-1.28;82.35
56668;BME280;42542;48.360;10.958;2024-01-15T07:48:56;94886.97;;;-1.24;81.90
56668;BME280;42542;48.360;10.958;2024-01-15T07:51:59;94882.56;;;-1.24;81.25
56668;BME280;42542;48.360;10.958;2024-01-15T07:55:02;94886.47;;;-1.18;79.92
56668;BME280;42542;48.360;10.958;2024-01-15T07:58:06;94880.59;;;-1.10;79.29
56668;BME280;42542;48.360;10.958;2024-01-15T08:01:17;94871.41;;;-1.05;79.47
56668;BME280;42542;48.360;10.958;2024-01-15T08:04:20;94860.91;;;-1.05;77.36
56668;BME280;42542;48.360;10.958;2024-01-15T08:07:26;94865.66;;;-0.99;76.64
56668;BME280;42542;48.360;10.958;2024-01-15T08:10:28;94867.78;;;-0.93;76.51
56668;BME280;42542;48.360;10.958;2024-01-15T08:13:30;94868.38;;;-0.89;75.44
56668;BME280;42542;48.360;10.958;2024-01-15T08:16:32;94874.88;;;-0.84;75.35
56668;BME280;42542;48.360;10.958;2024-01-15T08:19:34;94871.88;;;-0.79;75.17
56668;BME280;42542;48.360;10.958;2024-01-15T08:22:36;94888.94;;;-0.73;75.16
56668;BME280;42542;48.360;10.958;2024-01-15T08:25:39;94864.72;;;-0.77;76.03
56668;BME280;42542;48.360;10.958;2024-01-15T08:28:41;94867.66;;;-0.70;76.10
56668;BME280;42542;48.360;10.958;2024-01-15T08:31:42;94870.06;;;-0.67;75.67
56668;BME280;42542;48.360;10.958;2024-01-15T08:34:45;94872.41;;;-0.64;75.41
56668;BME280;42542;48.360;10.958;2024-01-15T08:37:49;94872.16;;;-0.61;75.70
56668;BME280;42542;48.360;10.958;2024-01-15T08:40:53;94869.97;;;-0.56;75.06
56668;BME280;42542;48.360;10.958;2024-01-15T08:43:59;94858.53;;;-0.55;74.22
56668;BME280;42542;48.360;10.958;2024-01-15T08:47:00;94856.63;;;-0.53;74.44
56668;BME280;42542;48.360;10.958;2024-01-15T08:50:05;94855.19;;;-0.57;74.70
56668;BME280;42542;48.360;10.958;2024-01-15T08:53:07;94879.97;;;-0.50;74.76
56668;BME280;42542;48.360;10.958;2024-01-15T08:56:09;94878.31;;;-0.51;73.27
56668;BME280;42542;48.360;10.958;2024-01-15T08:59:11;94876.25;;;-0.48;71.72
56668;BME280;42542;48.360;10.958;2024-01-15T09:02:13;94882.22;;;-0.46;70.97
56668;BME280;42542;48.360;10.958;2024-01-15T09:05:16;94875.63;;;-0.40;71.25
56668;BME280;42542;48.360;10.958;2024-01-15T09:08:18;94871.63;;;-0.34;68.57
56668;BME280;42542;48.360;10.958;2024-01-15T09:11:20;94868.66;;;-0.30;69.24
56668;BME280;42542;48.360;10.958;2024-01-15T09:14:23;94876.84;;;-0.23;67.87
56668;BME280;42542;48.360;10.958;2024-01-15T09:17:37;94872.97;;;-0.19;67.04
56668;BME280;42542;48.360;10.958;2024-01-15T09:20:39;94878.66;;;-0.14;68.14
56668;BME280;42542;48.360;10.958;2024-01-15T09:23:41;94875.06;;;-0.13;66.59
56668;BME280;42542;48.360;10.958;2024-01-15T09:26:43;94865.28;;;-0.11;66.68
56668;BME280;42542;48.360;10.958;2024-01-15T09:29:45;94856.31;;;-0.09;66.86
56668;BME280;42542;48.360;10.958;2024-01-15T09:32:48;94858.53;;;-0.04;65.84
56668;BME280;42542;48.360;10.958;2024-01-15T09:35:50;94867.25;;;-0.04;66.08
56668;BME280;42542;48.360;10.958;2024-01-15T09:38:52;94864.63;;;-0.04;64.68
56668;BME280;42542;48.360;10.958;2024-01-15T09:41:54;94869.63;;;-0.01;65.06
56668;BME280;42542;48.360;10.958;2024-01-15T09:44:55;94863.25;;;0.02;64.73
56668;BME280;42542;48.360;10.958;2024-01-15T09:47:57;94851.09;;;0.01;65.09
56668;BME280;42542;48.360;10.958;2024-01-15T09:51:01;94858.31;;;0.09;65.61
56668;BME280;42542;48.360;10.958;2024-01-15T09:54:04;94844.09;;;0.11;65.56
56668;BME280;42542;48.360;10.958;2024-01-15T09:57:07;94834.84;;;0.17;65.42
56668;BME280;42542;48.360;10.958;2024-01-15T10:00:10;94829.34;;;0.20;65.08
56668;BME280;42542;48.360;10.958;2024-01-15T10:03:13;94817.88;;;0.21;64.43
56668;BME280;42542;48.360;10.958;2024-01-15T10:06:16;94814.94;;;0.24;64.66
56668;BME280;42542;48.360;10.958;2024-01-15T10:09:23;94809.56;;;0.25;63.55
56668;BME280;42542;48.360;10.958;2024-01-15T10:12:25;94810.81;;;0.31;64.23
56668;BME280;42542;48.360;10.958;2024-01-15T10:15:34;94810.56;;;0.34;64.52
56668;BME280;42542;48.360;10.958;2024-01-15T10:18:38;94810.84;;;0.41;65.22
56668;BME280;42542;48.360;10.958;2024-01-15T10:21:41;94803.69;;;0.43;64.46
56668;BME280;42542;48.360;10.958;2024-01-15T10:24:43;94819.56;;;0.51;64.86
56668;BME280;42542;48.360;10.958;2024-01-15T10:27:45;94814.63;;;0.57;64.50
56668;BME280;42542;48.360;10.958;2024-01-15T10:31:00;94817.81;;;0.61;63.84
56668;BME280;42542;48.360;10.958;2024-01-15T10:34:13;94814.63;;;0.67;64.13
56668;BME280;42542;48.360;10.958;2024-01-15T10:37:17;94815.06;;;0.72;65.77
56668;BME280;42542;48.360;10.958;2024-01-15T10:40:20;94814.91;;;0.73;64.94
56668;BME280;42542;48.360;10.958;2024-01-15T10:43:28;94812.03;;;0.76;64.57
56668;BME280;42542;48.360;10.958;2024-01-15T10:46:31;94802.88;;;0.81;63.70
56668;BME280;42542;48.360;10.958;2024-01-15T10:49:34;94796.38;;;0.85;63.63
56668;BME280;42542;48.360;10.958;2024-01-15T10:52:38;94796.78;;;0.90;62.41
56668;BME280;42542;48.360;10.958;2024-01-15T10:55:42;94791.81;;;0.96;62.79
56668;BME280;42542;48.360;10.958;2024-01-15T10:58:45;94773.66;;;1.03;62.61
56668;BME280;42542;48.360;10.958;2024-01-15T11:01:48;94778.94;;;1.12;62.80
56668;BME280;42542;48.360;10.958;2024-01-15T11:04:51;94777.53;;;1.18;61.59
56668;BME280;42542;48.360;10.958;2024-01-15T11:07:57;94769.06;;;1.24;62.15
56668;BME280;42542;48.360;10.958;2024-01-15T11:11:01;94776.41;;;1.30;61.70
56668;BME280;42542;48.360;10.958;2024-01-15T11:14:04;94768.22;;;1.33;62.49
56668;BME280;42542;48.360;10.958;2024-01-15T11:17:05;94769.91;;;1.34;60.14
56668;BME280;42542;48.360;10.958;2024-01-15T11:20:07;94765.16;;;1.38;60.55
56668;BME280;42542;48.360;10.958;2024-01-15T11:23:09;94767.66;;;1.39;60.26
56668;BME280;42542;48.360;10.958;2024-01-15T11:29:34;94767.41;;;1.33;58.66
56668;BME280;42542;48.360;10.958;2024-01-15T11:32:36;94752.16;;;1.36;59.79
56668;BME280;42542;48.360;10.958;2024-01-15T11:35:48;94743.00;;;1.40;61.29
56668;BME280;42542;48.360;10.958;2024-01-15T11:38:52;94735.28;;;1.29;59.70
56668;BME280;42542;48.360;10.958;2024-01-15T11:41:54;94730.41;;;1.34;60.32
56668;BME280;42542;48.360;10.958;2024-01-15T11:44:58;94707.69;;;1.33;61.18
56668;BME280;42542;48.360;10.958;2024-01-15T11:51:12;94726.94;;;1.43;60.70
56668;BME280;42542;48.360;10.958;2024-01-15T11:54:15;94727.59;;;1.45;61.55
56668;BME280;42542;48.360;10.958;2024-01-15T11:57:31;94717.75;;;1.47;62.06
56668;BME280;42542;48.360;10.958;2024-01-15T12:00:40;94721.09;;;1.49;61.94
56668;BME280;42542;48.360;10.958;2024-01-15T12:03:44;94737.03;;;1.48;60.68
56668;BME280;42542;48.360;10.958;2024-01-15T12:06:46;94724.69;;;1.48;61.11
56668;BME280;42542;48.360;10.958;2024-01-15T12:09:47;94730.78;;;1.49;60.93
56668;BME280;42542;48.360;10.958;2024-01-15T12:13:02;94721.50;;;1.45;60.73
56668;BME280;42542;48.360;10.958;2024-01-15T12:16:07;94726.75;;;1.45;62.16
56668;BME280;42542;48.360;10.958;2024-01-15T12:19:09;94719.88;;;1.44;63.20
56668;BME280;42542;48.360;10.958;2024-01-15T12:22:11;94721.34;;;1.46;62.95
56668;BME280;42542;48.360;10.958;2024-01-15T12:25:13;94699.47;;;1.46;63.35
56668;BME280;42542;48.360;10.958;2024-01-15T12:28:15;94696.00;;;1.45;63.66
56668;BME280;42542;48.360;10.958;2024-01-15T12:31:16;94687.44;;;1.43;64.11
56668;BME280;42542;48.360;10.958;2024-01-15T12:34:19;94704.47;;;1.49;64.41
56668;BME280;42542;48.360;10.958;2024-01-15T12:37:22;94706.41;;;1.47;64.49
56668;BME280;42542;48.360;10.958;2024-01-15T12:40:24;94714.03;;;1.50;65.07
56668;BME280;42542;48.360;10.958;2024-01-15T12:43:32;94708.06;;;1.48;65.63
56668;BME280;42542;48.360;10.958;2024-01-15T12:46:34;94727.56;;;1.55;64.99
56668;BME280;42542;48.360;10.958;2024-01-15T12:49:37;94734.63;;;1.54;65.35
56668;BME280;42542;48.360;10.958;2024-01-15T12:52:40;94737.13;;;1.56;66.21
56668;BME280;42542;48.360;10.958;2024-01-15T12:55:42;94730.22;;;1.55;65.94
56668;BME280;42542;48.360;10.958;2024-01-15T12:58:44;94720.66;;;1.54;66.61
56668;BME280;42542;48.360;10.958;2024-01-15T13:01:46;94732.28;;;1.51;66.31
56668;BME280;42542;48.360;10.958;2024-01-15T13:04:48;94730.34;;;1.53;67.01
56668;BME280;42542;48.360;10.958;2024-01-15T13:07:52;94712.03;;;1.52;67.75
56668;BME280;42542;48.360;10.958;2024-01-15T13:10:53;94717.63;;;1.49;67.71
56668;BME280;42542;48.360;10.958;2024-01-15T13:13:59;94719.31;;;1.40;69.61
56668;BME280;42542;48.360;10.958;2024-01-15T13:17:01;94709.94;;;1.28;70.45
56668;BME280;42542;48.360;10.958;2024-01-15T13:20:04;94714.34;;;1.28;70.67
56668;BME280;42542;48.360;10.958;2024-01-15T13:23:06;94697.88;;;1.16;72.06
56668;BME280;42542;48.360;10.958;2024-01-15T13:26:08;94698.59;;;1.18;71.90
56668;BME280;42542;48.360;10.958;2024-01-15T13:29:10;94690.69;;;1.18;72.52
56668;BME280;42542;48.360;10.958;2024-01-15T13:32:24;94710.91;;;1.17;72.31
56668;BME280;42542;48.360;10.958;2024-01-15T13:35:26;94703.59;;;1.11;72.70
56668;BME280;42542;48.360;10.958;2024-01-15T13:38:28;94701.22;;;1.08;72.73
56668;BME280;42542;48.360;10.958;2024-01-15T13:41:34;94684.91;;;1.05;72.66
56668;BME280;42542;48.360;10.958;2024-01-15T13:44:35;94684.66;;;0.98;72.78
56668;BME280;42542;48.360;10.958;2024-01-15T13:47:37;94685.88;;;0.94;72.08
56668;BME280;42542;48.360;10.958;2024-01-15T13:50:39;94688.50;;;0.94;72.43
56668;BME280;42542;48.360;10.958;2024-01-15T13:53:41;94692.25;;;1.01;72.56
56668;BME280;42542;48.360;10.958;2024-01-15T13:56:43;94679.38;;;0.98;72.51
56668;BME280;42542;48.360;10.958;2024-01-15T13:59:46;94687.97;;;1.00;73.76
56668;BME280;42542;48.360;10.958;2024-01-15T14:02:49;94694.34;;;0.98;73.44
56668;BME280;42542;48.360;10.958;2024-01-15T14:05:51;94706.38;;;1.00;74.00
56668;BME280;42542;48.360;10.958;2024-01-15T14:08:54;94711.66;;;1.00;73.73
56668;BME280;42542;48.360;10.958;2024-01-15T14:11:55;94708.84;;;1.02;73.87
56668;BME280;42542;48.360;10.958;2024-01-15T14:14:57;94722.31;;;0.99;74.23
56668;BME280;42542;48.360;10.958;2024-01-15T14:17:59;94718.97;;;0.97;75.31
56668;BME280;42542;48.360;10.958;2024-01-15T14:21:02;94718.44;;;0.93;75.04
56668;BME280;42542;48.360;10.958;2024-01-15T14:24:05;94723.53;;;0.95;75.27
56668;BME280;42542;48.360;10.958;2024-01-15T14:27:09;94713.72;;;0.87;75.96
56668;BME280;42542;48.360;10.958;2024-01-15T14:30:13;94723.53;;;0.95;76.15
56668;BME280;42542;48.360;10.958;2024-01-15T14:33:17;94740.03;;;0.87;76.18
56668;BME280;42542;48.360;10.958;2024-01-15T14:36:19;94747.50;;;0.92;76.03
56668;BME280;42542;48.360;10.958;2024-01-15T14:39:22;94750.41;;;0.89;75.54
56668;BME280;42542;48.360;10.958;2024-01-15T14:42:24;94759.84;;;0.91;76.27
56668;BME280;42542;48.360;10.958;2024-01-15T14:45:26;94750.97;;;0.92;77.52
56668;BME280;42542;48.360;10.958;2024-01-15T14:48:29;94754.56;;;0.91;77.57
56668;BME280;42542;48.360;10.958;2024-01-15T14:51:31;94763.56;;;0.89;79.51
56668;BME280;42542;48.360;10.958;2024-01-15T14:54:33;94768.56;;;0.82;80.89
56668;BME280;42542;48.360;10.958;2024-01-15T14:57:36;94772.44;;;0.78;81.08
56668;BME280;42542;48.360;10.958;2024-01-15T15:00:38;94785.69;;;0.67;81.86
56668;BME280;42542;48.360;10.958;2024-01-15T15:03:40;94795.97;;;0.70;82.51
56668;BME280;42542;48.360;10.958;2024-01-15T15:06:42;94812.13;;;0.65;83.84
56668;BME280;42542;48.360;10.958;2024-01-15T15:09:45;94809.22;;;0.59;86.81
56668;BME280;42542;48.360;10.958;2024-01-15T15:12:47;94817.53;;;0.54;86.96
56668;BME280;42542;48.360;10.958;2024-01-15T15:15:49;94821.25;;;0.52;89.26
56668;BME280;42542;48.360;10.958;2024-01-15T15:18:51;94825.25;;;0.46;90.40
56668;BME280;42542;48.360;10.958;2024-01-15T15:21:54;94822.75;;;0.35;91.46
56668;BME280;42542;48.360;10.958;2024-01-15T15:24:56;94825.22;;;0.36;92.24
56668;BME280;42542;48.360;10.958;2024-01-15T15:27:58;94838.34;;;0.36;92.99
56668;BME280;42542;48.360;10.958;2024-01-15T15:31:00;94843.63;;;0.36;92.54
56668;BME280;42542;48.360;10.958;2024-01-15T15:34:02;94840.00;;;0.28;94.19
56668;BME280;42542;48.360;10.958;2024-01-15T15:37:04;94846.59;;;0.22;94.86
56668;BME280;42542;48.360;10.958;2024-01-15T15:40:06;94844.97;;;0.21;96.60
56668;BME280;42542;48.360;10.958;2024-01-15T15:43:11;94848.09;;;0.15;97.61
56668;BME280;42542;48.360;10.958;2024-01-15T15:46:13;94855.56;;;0.10;99.20
56668;BME280;42542;48.360;10.958;2024-01-15T15:49:14;94859.25;;;-0.02;100.00
56668;BME280;42542;48.360;10.958;2024-01-15T15:52:17;94876.09;;;-0.05;100.00
56668;BME280;42542;48.360;10.958;2024-01-15T15:55:19;94869.69;;;-0.12;100.00
56668;BME280;42542;48.360;10.958;2024-01-15T15:58:22;94875.47;;;-0.18;100.00
56668;BME280;42542;48.360;10.958;2024-01-15T16:01:24;94875.59;;;-0.19;100.00
56668;BME280;42542;48.360;10.958;2024-01-15T16:04:26;94881.13;;;-0.22;100.00
56668;BME280;42542;48.360;10.958;2024-01-15T16:07:27;94884.44;;;-0.20;100.00
56668;BME280;42542;48.360;10.958;2024-01-15T16:10:30;94895.66;;;-0.18;100.00